Keavy, Kentucky
Current Conditions -  °F | °C
As of 8:38 AM on Tuesday 21 Oct 2014 (Local Time) from KLOZ Reporting Station
Haze Haze  
Wind Chill: 45°   Ceiling: Unl
Heat Index: 45°   Visibility: 3mi
Dew Point: 42°   Wind: 0mph
Humidity: 90%   Direction: NA
Pressure: 30"   Gusts: NA
Location:  37°N, 84.16°W
Report Text: KLOZ 211238Z AUTO 00000KT 3SM BR FEW013 07/06 A3000 RMK AO2 T00720056
Loading
Personal Weather Stations






























Interactive Weather Map
Tropical Storm Tracking
New forecast layout! Learn more

10-Day Weather Forecast

Advertisements
Track Severe Weather on mobile